SBGOSBUL

Guest
Details From SBGO - Santo Genoveva
To SBUL - TEN CEL AV CESAR BOMBONATO
Flight Number -
Tags generated
Created
Modified
Stats Distance 147 nm / 272 km
Max Altitude 9,700 ft / 2,957 m
Waypoints 4
Social Downloads 1
Likes 0
Share VATSIM

Download

Looking for another format? Having issues loading an existing format? Contact us
Advertisement - Login to hide

Notes

Basic altitude profile: - Ascent Rate: 800ft/min - Ascent Speed: 135kts - Cruise Altitude: 10000ft - Cruise Speed: 150kts - Descent Rate: 800ft/min - Descent Speed: 135kts Options: - Use NATs: yes - Use PACOTS: yes - Use low airways: yes - Use high airways: yes

Route

SBGO GAZAR W24 GUARI SBUL

ID Type Via Altitude Latitude Longitude Leg Dist Tot Dist Heading (true) Name
O SBGO APT - 0 ft / 0 m -16.63203˚ -49.22069˚ - 0 nm - Santo Genoveva
GAZAR FIX - 9,700 ft / 2,957 m -17.04883˚ -49.03550˚ 27 nm 27 nm 157° / 157° -
GUARI FIX W24 (AWY-LO) 6,500 ft / 1,981 m -18.57883˚ -48.36633˚ 99 nm 126 nm 157° / 157° -
O SBUL APT - 0 ft / 0 m -18.88284˚ -48.22559˚ 19 nm 146 nm 156° / 156° TEN CEL AV CESAR BOMBONATO

Altitude Profile

Advertisement - Login to hide

SBGO

Details ICAO SBGO (GYN)
Name Santo Genoveva
Region Brazil
Timezone America/Sao_Paulo (UTC-2.0)
Stats Elevation 2,450 ft / 747 m (AMSL)
Location -16.632032° -49.220686°
Runways 1
Magnetic Variation 20.987° W

METAR

SBGO 102300Z VRB01KT 9999 FEW030 OVC100 21/21 Q1010

Decode

TAF

TAF SBGO 101600Z 1018/1118 33007KT 9000 NSC FEW035TCU TX25/1018Z TN21/1108Z PROB30 1018/1023 TSRA BKN020 FEW035CB BECMG 1104/1106 BKN010 PROB30 1110/1112 BKN007 BECMG 1114/1115 9999 BKN016 BECMG 1116/1117 29007KT BKN020 FEW035TCU RMK PCZ

Decode

Departure Runways

ID Width Length Bearing (true) Bearing (mag) Surface Threshold Offset Overrun Length
14 148 ft / 45 m 8,208 ft / 2,502 m 120.42° 141.41° Asphalt 0 ft / 0 m 0 ft / 0 m
32 148 ft / 45 m 8,208 ft / 2,502 m 300.41° 321.40° Asphalt 980 ft / 299 m 0 ft / 0 m

SBUL

Details ICAO SBUL (UDI)
Name TEN CEL AV CESAR BOMBONATO
Region Brazil
Timezone America/Sao_Paulo (UTC-2.0)
Stats Elevation 3,094 ft / 943 m (AMSL)
Location -18.882843° -48.225593°
Runways 1
Magnetic Variation 21.257° W

METAR

Not found

TAF

TAF SBUL 101612Z 1018/1106 30008KT 9999 SCT040 FEW047TCUTX30/1018Z TN21/1105Z PROB30 1018/1101 24008KT 9999 TS SCT035 FEW045CB RMK PGO

Decode

Destination Runways

ID Width Length Bearing (true) Bearing (mag) Surface Threshold Offset Overrun Length
04 148 ft / 45 m 6,418 ft / 1,956 m 22.56° 43.82° Asphalt 0 ft / 0 m 0 ft / 0 m
22 148 ft / 45 m 6,418 ft / 1,956 m 202.55° 223.81° Asphalt 0 ft / 0 m 0 ft / 0 m

Popular Alternatives